createdAt,value
2023-05-24T00:00:16.331Z,99094.53
2023-05-24T00:02:20.479Z,99091.91
2023-05-24T00:04:30.781Z,99097.81
2023-05-24T00:06:35.307Z,99098.91
2023-05-24T00:08:38.364Z,99098.38
2023-05-24T00:10:41.809Z,99098.34
2023-05-24T00:12:45.082Z,99108.56
2023-05-24T00:14:48.250Z,99108.84
2023-05-24T00:16:51.710Z,99101.88
2023-05-24T00:18:55.286Z,99105.44
2023-05-24T00:20:59.888Z,99100.59
2023-05-24T00:23:03.165Z,99098.94
2023-05-24T00:25:07.676Z,99099.50
2023-05-24T00:27:12.285Z,99092.41
2023-05-24T00:29:15.781Z,99092.94
2023-05-24T00:31:19.061Z,99097.53
2023-05-24T00:33:23.760Z,99094.25
2023-05-24T00:35:28.555Z,99099.94
2023-05-24T00:37:33.633Z,99100.28
2023-05-24T00:39:36.764Z,99104.53
2023-05-24T00:41:40.508Z,99101.13
2023-05-24T00:43:46.621Z,99101.69
2023-05-24T00:45:58.539Z,99101.72
2023-05-24T00:48:01.890Z,99105.47
2023-05-24T00:50:07.197Z,99099.50
2023-05-24T00:52:10.841Z,99104.34
2023-05-24T00:54:16.145Z,99106.50
2023-05-24T00:56:19.401Z,99103.84
2023-05-24T00:58:27.582Z,99116.91
2023-05-24T01:00:31.020Z,99107.69
2023-05-24T01:02:34.575Z,99115.28
2023-05-24T01:04:38.703Z,99109.63
2023-05-24T01:06:52.412Z,99113.44
2023-05-24T01:09:08.339Z,99113.66
2023-05-24T01:11:15.889Z,99122.88
2023-05-24T01:13:27.972Z,99122.34
2023-05-24T01:15:41.313Z,99121.78
2023-05-24T01:17:52.543Z,99116.13
2023-05-24T01:20:00.399Z,99124.56
2023-05-24T01:22:14.387Z,99128.31
2023-05-24T01:24:29.288Z,99128.03
2023-05-24T01:26:41.566Z,99134.28
2023-05-24T01:28:48.249Z,99130.53
2023-05-24T01:30:52.631Z,99134.91
2023-05-24T01:32:56.315Z,99128.38
2023-05-24T01:34:59.649Z,99138.13
2023-05-24T01:37:02.747Z,99139.72
2023-05-24T01:39:06.239Z,99135.41
2023-05-24T01:41:19.259Z,99137.53
2023-05-24T01:43:31.669Z,99137.00
2023-05-24T01:45:40.919Z,99142.69
2023-05-24T01:47:59.070Z,99142.22
2023-05-24T01:50:07.629Z,99143.31
2023-05-24T01:52:16.354Z,99140.63
2023-05-24T01:54:24.171Z,99141.72
2023-05-24T01:56:29.836Z,99140.38
2023-05-24T01:58:34.165Z,99152.78
2023-05-24T02:00:41.096Z,99149.50
2023-05-24T02:02:44.864Z,99148.19
2023-05-24T02:04:48.353Z,99153.06
2023-05-24T02:06:51.688Z,99149.50
2023-05-24T02:08:54.729Z,99157.34
2023-05-24T02:10:58.121Z,99149.00
2023-05-24T02:13:01.268Z,99147.06
2023-05-24T02:15:05.269Z,99154.84
2023-05-24T02:17:11.246Z,99153.81
2023-05-24T02:19:14.640Z,99155.75
2023-05-24T02:21:17.835Z,99163.31
2023-05-24T02:23:21.147Z,99160.06
2023-05-24T02:25:24.895Z,99163.03
2023-05-24T02:27:27.928Z,99153.50
2023-05-24T02:29:31.290Z,99161.63
2023-05-24T02:31:34.419Z,99154.66
2023-05-24T02:33:39.183Z,99168.19
2023-05-24T02:35:43.139Z,99166.53
2023-05-24T02:37:46.369Z,99164.75
2023-05-24T02:39:49.753Z,99169.38
2023-05-24T02:41:52.868Z,99172.09
2023-05-24T02:43:56.067Z,99170.06
2023-05-24T02:45:59.442Z,99173.69
2023-05-24T02:48:02.709Z,99168.38
2023-05-24T02:50:08.470Z,99171.31
2023-05-24T02:52:11.724Z,99177.31
2023-05-24T02:54:14.790Z,99180.00
2023-05-24T02:56:17.973Z,99178.25
2023-05-24T02:58:21.070Z,99192.06
2023-05-24T03:00:25.807Z,99179.91
2023-05-24T03:02:30.385Z,99197.69
2023-05-24T03:04:34.307Z,99198.78
2023-05-24T03:06:38.970Z,99208.34
2023-05-24T03:08:42.570Z,99209.03
2023-05-24T03:10:45.838Z,99205.47
2023-05-24T03:12:50.350Z,99201.78
2023-05-24T03:14:53.500Z,99204.69
2023-05-24T03:16:56.703Z,99204.25
2023-05-24T03:19:00.489Z,99207.72
2023-05-24T03:21:04.028Z,99204.38
2023-05-24T03:23:10.158Z,99221.03
2023-05-24T03:25:13.359Z,99216.75
2023-05-24T03:27:16.459Z,99217.84
2023-05-24T03:29:19.657Z,99212.13
2023-05-24T03:31:24.591Z,99213.72
2023-05-24T03:33:28.354Z,99215.16
2023-05-24T03:35:32.499Z,99221.97
2023-05-24T03:37:35.864Z,99228.78
2023-05-24T03:39:40.895Z,99234.84
2023-05-24T03:41:56.522Z,99236.59
2023-05-24T03:44:00.984Z,99236.88
2023-05-24T03:46:06.259Z,99239.78
2023-05-24T03:48:09.586Z,99244.28
2023-05-24T03:50:14.587Z,99251.06
2023-05-24T03:52:17.615Z,99245.00
2023-05-24T03:54:20.804Z,99240.09
2023-05-24T03:56:25.521Z,99245.16
2023-05-24T03:58:28.961Z,99246.44
2023-05-24T04:00:31.870Z,99253.50
2023-05-24T04:02:35.540Z,99249.56
2023-05-24T04:04:38.789Z,99256.91
2023-05-24T04:06:42.199Z,99268.66
2023-05-24T04:08:45.171Z,99270.06
2023-05-24T04:10:48.295Z,99272.50
2023-05-24T04:12:52.853Z,99272.28
2023-05-24T04:14:56.469Z,99276.81
2023-05-24T04:16:59.539Z,99271.25
2023-05-24T04:19:04.487Z,99273.84
2023-05-24T04:21:07.504Z,99276.00
2023-05-24T04:23:10.767Z,99277.94
2023-05-24T04:25:13.764Z,99280.56
2023-05-24T04:27:18.519Z,99285.03
2023-05-24T04:29:26.916Z,99280.84
2023-05-24T04:31:30.734Z,99291.19
2023-05-24T04:33:34.728Z,99295.69
2023-05-24T04:35:38.509Z,99295.88
2023-05-24T04:37:41.630Z,99304.34
2023-05-24T04:39:45.220Z,99302.75
2023-05-24T04:41:51.423Z,99308.06
2023-05-24T04:43:54.858Z,99305.91
2023-05-24T04:45:59.168Z,99319.38
2023-05-24T04:48:02.519Z,99315.06
2023-05-24T04:50:07.016Z,99318.34
2023-05-24T04:52:09.888Z,99321.03
2023-05-24T04:54:12.904Z,99334.53
2023-05-24T04:56:17.399Z,99326.88
2023-05-24T04:58:20.663Z,99330.06
2023-05-24T05:00:24.062Z,99333.34
2023-05-24T05:02:28.573Z,99327.84
2023-05-24T05:04:31.777Z,99335.69
2023-05-24T05:06:38.982Z,99334.88
2023-05-24T05:08:42.098Z,99334.03
2023-05-24T05:10:45.268Z,99347.97
2023-05-24T05:12:48.227Z,99352.13
2023-05-24T05:14:51.278Z,99339.66
2023-05-24T05:16:54.343Z,99345.97
2023-05-24T05:18:58.913Z,99356.06
2023-05-24T05:21:03.449Z,99353.94
2023-05-24T05:23:06.686Z,99353.03
2023-05-24T05:25:10.102Z,99362.63
2023-05-24T05:27:13.181Z,99364.84
2023-05-24T05:29:16.314Z,99371.41
2023-05-24T05:31:19.351Z,99363.91
2023-05-24T05:33:22.504Z,99370.34
2023-05-24T05:35:26.949Z,99367.66
2023-05-24T05:37:31.452Z,99379.22
2023-05-24T05:39:34.518Z,99377.38
2023-05-24T05:41:39.250Z,99375.25
2023-05-24T05:43:42.188Z,99383.84
2023-05-24T05:45:45.239Z,99389.56
2023-05-24T05:47:48.269Z,99389.66
2023-05-24T05:49:51.414Z,99396.91
2023-05-24T05:51:56.255Z,99395.78
2023-05-24T05:53:59.209Z,99392.38
2023-05-24T05:56:02.205Z,99396.56
2023-05-24T05:58:05.184Z,99396.69
2023-05-24T06:00:09.461Z,99401.34
2023-05-24T06:02:15.288Z,99396.47
2023-05-24T06:04:18.777Z,99407.00
2023-05-24T06:06:21.950Z,99405.47
2023-05-24T06:08:26.686Z,99409.59
2023-05-24T06:10:29.827Z,99402.31
2023-05-24T06:12:32.748Z,99415.34
2023-05-24T06:14:38.736Z,99416.28
2023-05-24T06:16:43.901Z,99425.28
2023-05-24T06:19:01.472Z,99413.47
2023-05-24T06:21:10.998Z,99427.88
2023-05-24T06:23:13.983Z,99423.88
2023-05-24T06:25:21.299Z,99425.88
2023-05-24T06:27:24.239Z,99434.31
2023-05-24T06:29:27.619Z,99430.47
2023-05-24T06:31:31.004Z,99426.97
2023-05-24T06:33:35.762Z,99434.00
2023-05-24T06:35:40.828Z,99445.38
2023-05-24T06:37:44.719Z,99446.66
2023-05-24T06:39:48.009Z,99446.66
2023-05-24T06:41:52.540Z,99449.00
2023-05-24T06:44:01.420Z,99451.94
2023-05-24T06:46:04.519Z,99450.31
2023-05-24T06:48:07.875Z,99455.91
2023-05-24T06:50:11.063Z,99462.97
2023-05-24T06:52:14.280Z,99464.38
2023-05-24T06:54:17.360Z,99463.53
2023-05-24T06:56:20.516Z,99464.97
2023-05-24T06:58:24.958Z,99466.34
2023-05-24T07:00:28.252Z,99471.16
2023-05-24T07:02:31.360Z,99471.88
2023-05-24T07:04:34.711Z,99469.97
2023-05-24T07:06:40.368Z,99476.09
2023-05-24T07:08:43.491Z,99480.06
2023-05-24T07:10:46.766Z,99482.44
2023-05-24T07:12:49.855Z,99488.28
2023-05-24T07:14:56.436Z,99484.06
2023-05-24T07:17:00.345Z,99487.22
2023-05-24T07:19:05.073Z,99487.94
2023-05-24T07:21:08.277Z,99503.66
2023-05-24T07:23:11.471Z,99506.78
2023-05-24T07:25:14.900Z,99511.38
2023-05-24T07:27:17.978Z,99514.53
2023-05-24T07:29:22.225Z,99513.38
2023-05-24T07:31:27.735Z,99501.53
2023-05-24T07:33:30.414Z,99508.09
2023-05-24T07:35:33.561Z,99504.78
2023-05-24T07:37:36.578Z,99509.25
2023-05-24T07:39:39.581Z,99512.25
2023-05-24T07:41:42.810Z,99509.31
2023-05-24T07:43:46.070Z,99525.50
2023-05-24T07:45:49.005Z,99529.53
2023-05-24T07:47:56.025Z,99524.94
2023-05-24T07:49:59.919Z,99525.50
2023-05-24T07:52:04.472Z,99526.97
2023-05-24T07:54:07.618Z,99529.03
2023-05-24T07:56:10.534Z,99530.19
2023-05-24T07:58:13.557Z,99537.13
2023-05-24T08:00:17.642Z,99539.50
2023-05-24T08:02:21.448Z,99538.81
2023-05-24T08:04:25.900Z,99538.78
2023-05-24T08:06:29.210Z,99541.13
2023-05-24T08:08:32.380Z,99548.19
2023-05-24T08:10:35.354Z,99557.22
2023-05-24T08:12:38.292Z,99561.47
2023-05-24T08:14:41.327Z,99558.88
2023-05-24T08:16:44.540Z,99564.53
2023-05-24T08:18:47.599Z,99557.47
2023-05-24T08:20:52.341Z,99556.44
2023-05-24T08:22:55.759Z,99566.16
2023-05-24T08:24:58.870Z,99568.41
2023-05-24T08:27:03.128Z,99557.84
2023-05-24T08:29:06.235Z,99571.44
2023-05-24T08:31:09.237Z,99560.88
2023-05-24T08:33:12.662Z,99562.41
2023-05-24T08:37:23.888Z,99569.22
2023-05-24T08:39:27.134Z,99572.13
2023-05-24T08:41:30.186Z,99577.91
2023-05-24T08:43:34.113Z,99588.31
2023-05-24T08:45:38.025Z,99577.53
2023-05-24T08:47:41.796Z,99591.41
2023-05-24T08:49:45.347Z,99585.03
2023-05-24T08:51:48.870Z,99593.25
2023-05-24T08:53:54.938Z,99584.22
2023-05-24T08:55:58.401Z,99589.03
2023-05-24T08:58:01.656Z,99589.28
2023-05-24T09:00:05.644Z,99600.03
2023-05-24T09:02:11.962Z,99594.66
2023-05-24T09:04:15.295Z,99580.09
2023-05-24T09:06:19.618Z,99592.13
2023-05-24T09:08:23.242Z,99588.47
2023-05-24T09:10:35.374Z,99589.56
2023-05-24T09:12:49.123Z,99591.38
2023-05-24T09:14:52.645Z,99590.75
2023-05-24T09:16:56.021Z,99594.66
2023-05-24T09:18:58.976Z,99600.00
2023-05-24T09:21:01.969Z,99603.97
2023-05-24T09:23:07.970Z,99601.38
2023-05-24T09:25:13.635Z,99604.66
2023-05-24T09:27:19.114Z,99603.88
2023-05-24T09:29:23.296Z,99606.00
2023-05-24T09:31:33.904Z,99608.66
2023-05-24T09:33:37.031Z,99612.75
2023-05-24T09:35:42.878Z,99614.94
2023-05-24T09:37:47.561Z,99605.41
2023-05-24T09:39:53.934Z,99603.19
2023-05-24T09:41:58.215Z,99612.31
2023-05-24T09:44:03.787Z,99613.38
2023-05-24T09:46:07.110Z,99615.84
2023-05-24T09:48:13.822Z,99623.00
2023-05-24T09:50:18.121Z,99620.72
2023-05-24T09:52:22.780Z,99620.28
2023-05-24T09:54:28.813Z,99623.81
2023-05-24T09:56:34.316Z,99629.25
2023-05-24T09:58:37.741Z,99624.22
2023-05-24T10:00:43.061Z,99628.16
2023-05-24T10:02:53.586Z,99636.66
2023-05-24T10:05:01.212Z,99634.59
2023-05-24T10:07:06.533Z,99638.63
2023-05-24T10:09:10.380Z,99643.16
2023-05-24T10:11:13.241Z,99641.56
2023-05-24T10:13:18.044Z,99643.88
2023-05-24T10:15:21.316Z,99649.28
2023-05-24T10:17:28.381Z,99635.31
2023-05-24T10:19:31.570Z,99634.16
2023-05-24T10:21:40.455Z,99640.25
2023-05-24T10:23:44.933Z,99641.28
2023-05-24T10:25:52.400Z,99641.22
2023-05-24T10:27:58.242Z,99643.59
2023-05-24T10:30:13.716Z,99640.00
2023-05-24T10:32:19.999Z,99639.13
2023-05-24T10:34:24.644Z,99646.00
2023-05-24T10:36:27.996Z,99644.94
2023-05-24T10:38:31.967Z,99646.41
2023-05-24T10:40:36.385Z,99645.25
2023-05-24T10:42:40.019Z,99639.25
2023-05-24T10:44:43.420Z,99635.25
2023-05-24T10:47:13.516Z,99650.94
2023-05-24T10:49:19.531Z,99647.81
2023-05-24T10:51:38.994Z,99647.66
2023-05-24T10:53:42.351Z,99644.69
2023-05-24T10:55:56.409Z,99649.94
2023-05-24T10:57:59.460Z,99656.75
2023-05-24T11:02:36.474Z,99653.06
2023-05-24T11:04:41.010Z,99656.84
2023-05-24T11:06:49.870Z,99658.31
2023-05-24T11:08:54.162Z,99659.75
2023-05-24T11:11:22.157Z,99658.06
2023-05-24T11:13:28.424Z,99662.22
2023-05-24T11:15:31.459Z,99659.84
2023-05-24T11:18:13.117Z,99663.84
2023-05-24T11:20:17.793Z,99658.75
2023-05-24T11:22:23.265Z,99652.66
2023-05-24T11:24:27.217Z,99656.78
2023-05-24T11:26:30.285Z,99662.75
2023-05-24T11:28:37.139Z,99656.91
2023-05-24T11:30:41.389Z,99657.09
2023-05-24T11:32:48.782Z,99651.09
2023-05-24T11:34:52.206Z,99652.81
2023-05-24T11:36:55.719Z,99655.16
2023-05-24T11:39:00.201Z,99655.38
2023-05-24T11:41:03.286Z,99662.44
2023-05-24T11:43:07.111Z,99655.91
2023-05-24T11:45:11.500Z,99655.22
2023-05-24T11:47:14.864Z,99661.69
2023-05-24T11:49:18.188Z,99657.84
2023-05-24T11:51:27.039Z,99660.28
2023-05-24T11:53:29.968Z,99671.13
2023-05-24T11:55:34.393Z,99665.75
2023-05-24T11:57:41.691Z,99664.91
2023-05-24T11:59:44.692Z,99666.19
2023-05-24T12:01:47.624Z,99676.94
2023-05-24T12:03:51.506Z,99669.78
2023-05-24T12:05:57.923Z,99673.47
2023-05-24T12:08:06.219Z,99678.34
2023-05-24T12:10:10.869Z,99669.00
2023-05-24T12:12:15.357Z,99671.09
2023-05-24T12:14:20.128Z,99669.72
2023-05-24T12:16:23.758Z,99658.97
2023-05-24T12:18:27.146Z,99665.25
2023-05-24T12:20:30.528Z,99666.41
2023-05-24T12:22:33.591Z,99669.69
2023-05-24T12:24:38.440Z,99665.34
2023-05-24T12:26:43.311Z,99664.22
2023-05-24T12:28:54.275Z,99670.72
2023-05-24T12:30:58.393Z,99679.88
2023-05-24T12:33:01.443Z,99674.34
2023-05-24T12:35:05.316Z,99673.00
2023-05-24T12:37:09.898Z,99676.78
2023-05-24T12:39:23.295Z,99675.28
2023-05-24T12:41:26.366Z,99675.22
2023-05-24T12:43:30.129Z,99679.97
2023-05-24T12:45:35.261Z,99679.63
2023-05-24T12:47:38.453Z,99675.53
2023-05-24T12:49:41.564Z,99674.97
2023-05-24T12:51:46.124Z,99672.31
2023-05-24T12:53:49.807Z,99675.00
2023-05-24T12:55:56.342Z,99679.75
2023-05-24T12:58:02.109Z,99684.09
2023-05-24T13:00:06.366Z,99666.09
2023-05-24T13:02:11.209Z,99676.63
2023-05-24T13:04:14.419Z,99670.53
2023-05-24T13:06:17.965Z,99676.88
2023-05-24T13:08:20.970Z,99668.59
2023-05-24T13:10:24.469Z,99669.94
2023-05-24T13:12:30.632Z,99667.09
2023-05-24T13:14:33.555Z,99668.31
2023-05-24T13:16:36.961Z,99668.19
2023-05-24T13:18:41.643Z,99663.69
2023-05-24T13:20:45.149Z,99658.63
2023-05-24T13:22:49.624Z,99659.63
2023-05-24T13:24:52.745Z,99667.56
2023-05-24T13:26:55.808Z,99650.81
2023-05-24T13:29:30.578Z,99654.78
2023-05-24T13:31:21.951Z,99657.91
2023-05-24T13:33:25.084Z,99663.38
2023-05-24T13:35:30.738Z,99659.06
2023-05-24T13:37:33.983Z,99657.56
2023-05-24T13:39:38.951Z,99662.38
2023-05-24T13:41:43.529Z,99663.03
2023-05-24T13:43:47.264Z,99659.69
2023-05-24T13:45:50.791Z,99661.16
2023-05-24T13:47:58.757Z,99654.94
2023-05-24T13:50:02.115Z,99659.47
2023-05-24T13:52:06.846Z,99662.78
2023-05-24T13:54:10.187Z,99660.34
2023-05-24T13:56:13.411Z,99665.06
2023-05-24T13:58:16.899Z,99668.91
2023-05-24T14:00:20.848Z,99664.84
2023-05-24T14:02:24.013Z,99660.91
2023-05-24T14:04:27.041Z,99666.06
2023-05-24T14:06:30.212Z,99659.59
2023-05-24T14:08:35.044Z,99662.22
2023-05-24T14:10:38.269Z,99662.34
2023-05-24T14:12:42.582Z,99670.00
2023-05-24T14:16:55.354Z,99668.84
2023-05-24T14:18:58.628Z,99659.22
2023-05-24T14:21:01.825Z,99662.66
2023-05-24T14:23:05.163Z,99665.03
2023-05-24T14:25:10.849Z,99666.38
2023-05-24T14:27:13.838Z,99670.09
2023-05-24T14:29:16.770Z,99666.84
2023-05-24T14:31:19.966Z,99669.19
2023-05-24T14:33:23.885Z,99665.94
2023-05-24T14:35:27.534Z,99654.56
2023-05-24T14:37:30.887Z,99658.41
2023-05-24T14:39:33.706Z,99668.75
2023-05-24T14:41:38.347Z,99669.66
2023-05-24T14:43:42.308Z,99673.41
2023-05-24T14:45:45.627Z,99669.25
2023-05-24T14:47:49.471Z,99666.13
2023-05-24T14:49:52.593Z,99662.97
2023-05-24T14:51:55.572Z,99671.97
2023-05-24T14:53:59.141Z,99666.84
2023-05-24T14:56:04.210Z,99670.22
2023-05-24T14:58:14.594Z,99669.06
2023-05-24T15:00:21.487Z,99670.53
2023-05-24T15:02:26.475Z,99668.63
2023-05-24T15:04:29.720Z,99677.63
2023-05-24T15:06:35.426Z,99673.22
2023-05-24T15:08:38.489Z,99676.78
2023-05-24T15:10:44.142Z,99674.19
2023-05-24T15:12:48.987Z,99670.75
2023-05-24T15:14:53.389Z,99675.50
2023-05-24T15:16:56.447Z,99667.31
2023-05-24T15:18:59.700Z,99672.69
2023-05-24T15:21:02.837Z,99674.19
2023-05-24T15:23:06.696Z,99666.06
2023-05-24T15:25:10.951Z,99664.63
2023-05-24T15:27:14.121Z,99666.00
2023-05-24T15:29:17.933Z,99672.09
2023-05-24T15:31:22.597Z,99676.16
2023-05-24T15:33:27.015Z,99674.59
2023-05-24T15:35:29.972Z,99677.50
2023-05-24T15:37:33.063Z,99670.25
2023-05-24T15:39:37.347Z,99669.25
2023-05-24T15:41:40.373Z,99672.44
2023-05-24T15:43:43.604Z,99682.88
2023-05-24T15:45:47.437Z,99674.38
2023-05-24T15:47:52.099Z,99681.09
2023-05-24T15:49:55.560Z,99677.09
2023-05-24T15:52:04.401Z,99673.06
2023-05-24T15:54:08.153Z,99676.56
2023-05-24T15:56:12.229Z,99676.16
2023-05-24T15:58:16.100Z,99684.66
2023-05-24T16:00:19.209Z,99680.63
2023-05-24T16:02:22.293Z,99681.78
2023-05-24T16:04:26.838Z,99682.72
2023-05-24T16:06:29.748Z,99685.28
2023-05-24T16:08:32.812Z,99685.00
2023-05-24T16:10:36.717Z,99691.16
2023-05-24T16:12:39.779Z,99697.69
2023-05-24T16:14:42.804Z,99696.84
2023-05-24T16:16:46.042Z,99696.22
2023-05-24T16:18:49.067Z,99704.25
2023-05-24T16:20:53.807Z,99698.94
2023-05-24T16:22:58.488Z,99701.31
2023-05-24T16:25:01.488Z,99700.31
2023-05-24T16:27:04.799Z,99700.72
2023-05-24T16:29:07.768Z,99702.88
2023-05-24T16:31:10.789Z,99711.19
2023-05-24T16:33:13.831Z,99714.22
2023-05-24T16:35:17.006Z,99709.94
2023-05-24T16:37:21.613Z,99711.97
2023-05-24T16:39:26.220Z,99702.63
2023-05-24T16:41:35.087Z,99713.72
2023-05-24T16:43:38.131Z,99714.59
2023-05-24T16:45:41.350Z,99718.81
2023-05-24T16:47:44.487Z,99723.81
2023-05-24T16:49:47.709Z,99719.13
2023-05-24T16:51:50.909Z,99712.66
2023-05-24T16:53:55.729Z,99711.16
2023-05-24T16:55:58.753Z,99715.59
2023-05-24T16:58:01.872Z,99724.63
2023-05-24T17:00:05.938Z,99724.63
2023-05-24T17:02:09.073Z,99725.44
2023-05-24T17:04:12.249Z,99730.28
2023-05-24T17:06:15.289Z,99725.09
2023-05-24T17:08:19.271Z,99729.56
2023-05-24T17:10:23.823Z,99728.56
2023-05-24T17:12:26.763Z,99730.75
2023-05-24T17:14:29.753Z,99731.91
2023-05-24T17:16:32.816Z,99736.75
2023-05-24T17:18:36.108Z,99739.47
2023-05-24T17:20:39.283Z,99730.09
2023-05-24T17:22:42.505Z,99734.44
2023-05-24T17:24:45.564Z,99732.97
2023-05-24T17:26:50.162Z,99739.13
2023-05-24T17:28:53.484Z,99740.53
2023-05-24T17:30:57.544Z,99743.31
2023-05-24T17:33:00.648Z,99746.41
2023-05-24T17:35:04.077Z,99750.72
2023-05-24T17:37:07.362Z,99752.59
2023-05-24T17:39:10.454Z,99754.16
2023-05-24T17:41:13.602Z,99757.25
2023-05-24T17:43:17.960Z,99758.06
2023-05-24T17:45:21.098Z,99757.81
2023-05-24T17:47:24.349Z,99757.16
2023-05-24T17:49:27.399Z,99758.25
2023-05-24T17:51:30.839Z,99761.03
2023-05-24T17:53:35.593Z,99760.09
2023-05-24T17:55:38.660Z,99767.25
2023-05-24T17:57:41.659Z,99768.00
2023-05-24T17:59:46.120Z,99761.19
2023-05-24T18:01:49.225Z,99766.13
2023-05-24T18:03:52.165Z,99769.56
2023-05-24T18:05:55.457Z,99774.78
2023-05-24T18:07:58.537Z,99769.56
2023-05-24T18:10:01.731Z,99760.44
2023-05-24T18:12:06.017Z,99781.22
2023-05-24T18:14:09.328Z,99778.25
2023-05-24T18:16:14.219Z,99775.78
2023-05-24T18:18:17.533Z,99771.34
2023-05-24T18:20:22.823Z,99774.22
2023-05-24T18:22:25.846Z,99776.84
2023-05-24T18:24:28.831Z,99770.88
2023-05-24T18:26:31.870Z,99780.88
2023-05-24T18:28:37.655Z,99778.00
2023-05-24T18:30:42.825Z,99782.97
2023-05-24T18:33:03.411Z,99785.41
2023-05-24T18:35:09.564Z,99792.09
2023-05-24T18:37:12.775Z,99804.72
2023-05-24T18:39:16.545Z,99802.41
2023-05-24T18:41:22.945Z,99800.31
2023-05-24T18:43:26.303Z,99810.66
2023-05-24T18:45:29.648Z,99807.13
2023-05-24T18:47:33.485Z,99808.84
2023-05-24T18:49:38.706Z,99811.38
2023-05-24T18:51:42.232Z,99808.53
2023-05-24T18:53:45.515Z,99806.69
2023-05-24T18:55:48.832Z,99810.59
2023-05-24T18:57:52.512Z,99809.53
2023-05-24T18:59:56.135Z,99813.31
2023-05-24T19:02:01.464Z,99810.97
2023-05-24T19:04:04.586Z,99816.72
2023-05-24T19:06:09.898Z,99824.94
2023-05-24T19:08:14.121Z,99819.53
2023-05-24T19:10:18.327Z,99824.16
2023-05-24T19:12:22.785Z,99812.97
2023-05-24T19:14:26.705Z,99815.66
2023-05-24T19:16:30.296Z,99821.78
2023-05-24T19:18:33.733Z,99823.41
2023-05-24T19:20:37.468Z,99828.81
2023-05-24T19:22:42.803Z,99833.88
2023-05-24T19:24:46.376Z,99835.56
2023-05-24T19:26:49.889Z,99833.91
2023-05-24T19:28:54.549Z,99839.53
2023-05-24T19:31:01.626Z,99835.41
2023-05-24T19:33:05.177Z,99843.53
2023-05-24T19:35:11.568Z,99846.13
2023-05-24T19:37:16.201Z,99848.00
2023-05-24T19:39:21.725Z,99844.59
2023-05-24T19:41:24.447Z,99852.13
2023-05-24T19:43:28.105Z,99849.28
2023-05-24T19:45:31.416Z,99856.78
2023-05-24T19:47:34.959Z,99859.38
2023-05-24T19:49:38.419Z,99845.72
2023-05-24T19:51:41.925Z,99862.06
2023-05-24T19:53:45.717Z,99851.97
2023-05-24T19:55:50.690Z,99852.09
2023-05-24T19:57:54.107Z,99850.00
2023-05-24T19:59:57.313Z,99855.59
2023-05-24T20:02:00.883Z,99862.69
2023-05-24T20:04:04.499Z,99857.97
2023-05-24T20:06:08.216Z,99855.84
2023-05-24T20:08:12.762Z,99860.41
2023-05-24T20:10:16.234Z,99860.22
2023-05-24T20:12:21.128Z,99859.38
2023-05-24T20:14:24.385Z,99856.91
2023-05-24T20:16:27.940Z,99856.53
2023-05-24T20:18:31.355Z,99857.97
2023-05-24T20:20:34.734Z,99856.34
2023-05-24T20:22:38.016Z,99854.56
2023-05-24T20:24:41.274Z,99855.16
2023-05-24T20:26:44.649Z,99857.34
2023-05-24T20:28:50.687Z,99847.13
2023-05-24T20:30:54.118Z,99853.97
2023-05-24T20:32:57.400Z,99846.31
2023-05-24T20:35:01.074Z,99848.56
2023-05-24T20:37:04.711Z,99847.50
2023-05-24T20:39:08.187Z,99854.19
2023-05-24T20:41:11.639Z,99853.16
2023-05-24T20:43:15.200Z,99856.75
2023-05-24T20:45:20.328Z,99850.53
2023-05-24T20:47:23.968Z,99848.66
2023-05-24T20:49:28.118Z,99849.25
2023-05-24T20:51:31.985Z,99849.47
2023-05-24T20:53:36.411Z,99844.31
2023-05-24T20:55:42.633Z,99851.53
2023-05-24T20:57:46.974Z,99842.75
2023-05-24T20:59:50.790Z,99852.13
2023-05-24T21:01:56.494Z,99854.34
2023-05-24T21:04:05.706Z,99850.25
2023-05-24T21:06:09.146Z,99856.03
2023-05-24T21:08:12.731Z,99859.72
2023-05-24T21:10:19.263Z,99856.59
2023-05-24T21:12:22.937Z,99848.94
2023-05-24T21:14:27.318Z,99849.44
2023-05-24T21:16:30.631Z,99844.16
2023-05-24T21:18:35.429Z,99846.41
2023-05-24T21:20:38.822Z,99859.91
2023-05-24T21:22:42.706Z,99858.69
2023-05-24T21:24:46.034Z,99856.69
2023-05-24T21:26:49.375Z,99868.44
2023-05-24T21:28:52.821Z,99861.50
2023-05-24T21:30:56.155Z,99867.97
2023-05-24T21:32:59.684Z,99864.34
2023-05-24T21:35:05.076Z,99873.16
2023-05-24T21:37:08.878Z,99866.06
2023-05-24T21:39:12.464Z,99873.50
2023-05-24T21:41:15.758Z,99876.44
2023-05-24T21:43:19.106Z,99869.56
2023-05-24T21:45:22.507Z,99871.97
2023-05-24T21:47:25.800Z,99878.06
2023-05-24T21:49:29.120Z,99877.63
2023-05-24T21:51:34.143Z,99886.75
2023-05-24T21:53:37.305Z,99887.59
2023-05-24T21:55:40.763Z,99888.75
2023-05-24T21:57:43.870Z,99885.56
2023-05-24T21:59:47.232Z,99882.44
2023-05-24T22:01:51.693Z,99879.38
2023-05-24T22:03:55.287Z,99887.69
2023-05-24T22:05:58.520Z,99883.94
2023-05-24T22:08:03.401Z,99884.88
2023-05-24T22:10:07.694Z,99884.28
2023-05-24T22:12:11.282Z,99887.31
2023-05-24T22:14:14.550Z,99885.22
2023-05-24T22:16:18.044Z,99884.16
2023-05-24T22:18:22.207Z,99882.91
2023-05-24T22:20:27.984Z,99878.56
2023-05-24T22:22:31.217Z,99877.13
2023-05-24T22:24:36.147Z,99883.41
2023-05-24T22:26:42.044Z,99889.25
2023-05-24T22:28:52.619Z,99891.41
2023-05-24T22:30:55.926Z,99894.56
2023-05-24T22:32:59.170Z,99887.38
2023-05-24T22:35:02.605Z,99895.31
2023-05-24T22:37:07.253Z,99887.22
2023-05-24T22:39:10.348Z,99893.69
2023-05-24T22:41:15.144Z,99896.31
2023-05-24T22:43:18.529Z,99909.44
2023-05-24T22:45:23.585Z,99902.28
2023-05-24T22:47:30.013Z,99906.34
2023-05-24T22:49:34.570Z,99907.97
2023-05-24T22:51:39.666Z,99912.16
2023-05-24T22:53:43.172Z,99910.31
2023-05-24T22:55:46.749Z,99907.28
2023-05-24T22:57:51.589Z,99911.47
2023-05-24T22:59:55.049Z,99910.69
2023-05-24T23:01:58.356Z,99910.06
2023-05-24T23:04:18.754Z,99916.72
2023-05-24T23:06:22.644Z,99906.84
2023-05-24T23:08:26.029Z,99903.97
2023-05-24T23:10:29.384Z,99907.44
2023-05-24T23:12:32.485Z,99908.28
2023-05-24T23:14:42.431Z,99898.09
2023-05-24T23:16:46.240Z,99897.50
2023-05-24T23:18:50.148Z,99908.03
2023-05-24T23:20:56.449Z,99906.97
2023-05-24T23:23:03.121Z,99908.09
2023-05-24T23:25:08.371Z,99909.78
2023-05-24T23:27:12.605Z,99910.00
2023-05-24T23:29:16.288Z,99904.75
2023-05-24T23:31:21.407Z,99903.97
2023-05-24T23:33:24.777Z,99906.25
2023-05-24T23:35:27.924Z,99904.88
2023-05-24T23:37:31.326Z,99915.44
2023-05-24T23:39:35.049Z,99908.84
2023-05-24T23:41:38.312Z,99909.16
2023-05-24T23:43:41.643Z,99910.31
2023-05-24T23:45:45.127Z,99912.66
2023-05-24T23:47:50.055Z,99906.88
2023-05-24T23:49:53.240Z,99919.41
2023-05-24T23:51:56.489Z,99923.75
2023-05-24T23:54:00.251Z,99922.31
2023-05-24T23:56:03.664Z,99920.56
2023-05-24T23:58:08.317Z,99924.47
